Alexander Ruidiaz

Chefscout - Juan Aurich
20 Jan 2028
Donnerstag
Verarbeitung

Persönlichkeit

Anpassungsfähigkeit (1) Ehrgeiz (8) Kontroverse (11) Loyalität (10) Druck (4) Professionalität (19) Fairness (14) Temperament (11)

Profil

Trainerstil Demokratisch
Lizenz Nationale B
Entschlossenheit 11
Menschenführung 8
Motivation 7
Disziplin 9
Arbeitszufriedenheit
100%
Ermüdung
0%
Rolle Chefscout
Gehalt 32.7K p/W
Vertrag 14.03.2028

Leistung

Verhalten Gut
Trainingseffektivität
43%
Spielerentwicklung
20%
Verletzungsprävention
25%
Taktische Umsetzung
35%

Letzte Ereignisse

Nimmt an Fortbildung teil jetzt
Nahm an einer Scouting-Besprechung teil jetzt
Empfahl ein Transferziel jetzt
Empfahl ein Transferziel jetzt
Empfahl ein Transferziel jetzt
Empfahl ein Transferziel jetzt
Vertragsverhandlung begonnen jetzt
Nimmt an Fortbildung teil jetzt

Aktuell beobachtet

206
Spieler Verein Status Fähigkeit Vertrauen Beobachtet Zuletzt beobachtet Letzte Stimme
Juan Rocca Gimnasia y Tiro Aktiv 117 / 100 40% 5 07.01.2028 -
Richard Figueroa Deportivo Lara Aktiv 110 / 100 40% 5 07.01.2028 -
Luca Franco Arsenal Aktiv 107 / 115 40% 6 07.01.2028 -
Jhoao Rodríguez Deportes Quindio Aktiv 106 / 120 40% 1 06.01.2028 -
Bautista Tomatis Racing Aktiv 115 / 121 40% 1 06.01.2028 -
Tiziano Dornell Danubio Aktiv 109 / 130 40% 2 03.01.2028 -
Emiliano Saliadarre Miramar Misiones Aktiv 117 / 107 40% 2 03.01.2028 -
Rodrigo Bogarín Barracas Central Aktiv 117 / 117 40% 3 03.01.2028 -
Jefry Zapata Danubio Aktiv 124 / 127 40% 5 28.12.2027 -
Alejo Cruz Juventud Aktiv 126 / 129 40% 4 28.12.2027 Beobachten
Antony Alonso Deportivo Riestra Aktiv 125 / 121 40% 2 15.12.2027 -
Luca Martínez Dupuy Godoy Cruz Aktiv 125 / 129 40% 1 15.12.2027 -
Brayan Aragón Universitario Aktiv 100 / 84 69% 1 07.12.2027 Befürworten
Jonathan Cañete Portuguesa Aktiv 109 / 101 40% 5 02.12.2027 -
Maclyn Biokpo Jenewari Rivers United Aktiv 106 / 115 40% 5 02.12.2027 -
Chineme Chinonso Ikorodu City Aktiv 87 / 82 40% 3 02.12.2027 -
Santiago Gálvez UTC Verhandlung 95 / 95 69% 1 02.12.2027 Befürworten
Eric Ramírez Llaneros Aktiv 121 / 120 40% 6 27.11.2027 -
Fernando Mimbacas Juventud Aktiv 118 / 122 40% 3 27.11.2027 -
Leandro Suhr Boston River Aktiv 114 / 109 40% 4 26.11.2027 -
Richard Celis Zamora Aktiv 106 / 117 40% 5 23.11.2027 -
Kevin Méndez Dinamo Tbilisi Aktiv 108 / 113 40% 12 23.11.2027 -
Alexander Díaz Deportivo Riestra Aktiv 130 / 129 40% 1 22.11.2027 -
Facundo Castelli Estudiantes Aktiv 126 / 118 40% 4 21.11.2027 -
Samuel Anakwe Remo Stars Aktiv 107 / 92 40% 3 21.11.2027 -
Luciano Inverso Rentistas Aktiv 117 / 113 40% 1 19.11.2027 -
Gianluca Pugliese Güemes Aktiv 110 / 109 40% 7 17.11.2027 -
Adalberto Peñaranda Deportivo Tachira Aktiv 120 / 122 40% 3 17.11.2027 -
Enzo Avaro Odd Aktiv 103 / 120 40% 5 13.11.2027 -
Federico Martínez Liverpool Montevideo Aktiv 123 / 108 40% 4 13.11.2027 -
Santiago Sala Güemes Aktiv 114 / 112 40% 5 13.11.2027 -
Sebastián Cocimano Nueva Chicago Aktiv 115 / 113 40% 3 12.11.2027 -
Luciano Cosentino Wanderers Aktiv 132 / 115 40% 3 11.11.2027 -
Lucas Carrizo Plaza Colonia Aktiv 120 / 113 40% 2 06.11.2027 -
Sunday Megwo Abia Warriors Aktiv 92 / 88 40% 3 03.11.2027 -
Agustín Módica Gimnasia y Esgrima Aktiv 119 / 114 40% 1 03.11.2027 -
Jhonatan Candia Barracas Central Aktiv 120 / 119 40% 3 30.10.2027 -
Marco Bustillo Zamora Aktiv 110 / 92 40% 6 29.10.2027 -
Lucas Pedraza Defensores Unidos Aktiv 99 / 95 40% 1 28.10.2027 -
Agustín Occhiato Katsina United Aktiv 103 / 101 40% 2 25.10.2027 -
Timothy Zechariah Rivers United Aktiv 108 / 103 40% 1 19.10.2027 -
Juan Mendoza Güemes Aktiv 102 / 105 40% 2 14.10.2027 -
Javier Martínez Almirante Brown Aktiv 111 / 119 40% 1 12.10.2027 -
Shuaibu Ibrahim Wikki Tourists Aktiv 98 / 72 40% 2 09.10.2027 -
Ivo Costantino Rentistas Aktiv 116 / 110 40% 2 08.10.2027 -
Adama Goïta Remo Stars Aktiv 103 / 118 40% 1 08.10.2027 -
Enzo Cabrera Danubio Aktiv 113 / 104 40% 1 07.10.2027 -
Nicolás Heiz Maipú Aktiv 114 / 107 40% 2 04.10.2027 -
Agustín Gallo Tristán Suárez Aktiv 116 / 112 40% 3 29.09.2027 -
Nahuel Soria Oriental Aktiv 110 / 94 40% 3 29.09.2027 -
Chinedu Onyinjekwu Bayelsa United Aktiv 89 / 96 40% 2 27.09.2027 -
Okardi Inikurogha Bayelsa United Aktiv 88 / 79 40% 1 25.09.2027 -
Agustín Paz Progreso Aktiv 120 / 105 40% 1 24.09.2027 -
Santiago Apa All Boys Aktiv 104 / 102 40% 1 23.09.2027 -
Joaquín Zeballos Wanderers Aktiv 112 / 109 40% 1 20.09.2027 -
Brian Fernández Banfield Aktiv 113 / 100 40% 2 16.09.2027 -
Facundo de León Progreso Aktiv 100 / 107 40% 1 13.09.2027 -
Ignacio Yepez Cerrito Aktiv 114 / 117 40% 1 08.09.2027 -
Misael Sosa Godoy Cruz Aktiv 120 / 110 40% 1 06.09.2027 -
Augusto Berrondo Tristán Suárez Aktiv 107 / 103 40% 1 06.09.2027 -
Camillo Tavernelli Arezzo Aktiv 127 / 112 40% 8 19.07.2027 -
Louis Appéré Cambridge United Aktiv 99 / 116 40% 4 19.07.2027 -
Fabrizio Lora Sporting Cristal Verloren 94 / 90 69% 1 19.07.2027 Befürworten
Robert Mizo Ashanti Gold Aktiv 104 / 97 40% 8 09.07.2027 -
César Doy Melgar Aktiv 94 / 93 65% 1 28.06.2027 Befürworten
Dale Taylor Blackpool Aktiv 108 / 128 40% 2 21.06.2027 -
Simone Mazzocchi Cosenza Aktiv 113 / 120 40% 3 21.06.2027 -
Diego Núñez Melgar Aktiv 84 / 79 65% 1 21.06.2027 Befürworten
Bojan Radulović Huddersfield Town Aktiv 128 / 127 40% 4 31.05.2027 -
Davis Keillor-Dunn Wrexham Aktiv 122 / 114 40% 2 31.05.2027 -
Lee Bonis Chesterfield Aktiv 99 / 98 40% 4 31.05.2027 -
Stephen Humphrys Bradford City Aktiv 102 / 95 40% 4 27.05.2027 -
Iwan Morgan Grimsby Town Aktiv 105 / 120 40% 7 26.05.2027 -
Kelly Saravanan Salford City Aktiv 106 / 97 40% 5 26.05.2027 -
Lewis McCann Fleetwood Town Aktiv 105 / 99 40% 7 26.05.2027 -
Bismark Asante Ashanti Gold Aktiv 91 / 77 40% 4 24.05.2027 -
Bradley Fink Wycombe Wanderers Aktiv 120 / 125 40% 4 24.05.2027 -
Alassana Jatta Notts County Aktiv 103 / 110 40% 4 23.05.2027 -
Bernat Guiu Virtus Entella Aktiv 112 / 120 40% 2 23.05.2027 -
Ekain Orobengoa Real Sociedad Aktiv 112 / 101 40% 4 19.05.2027 -
Malik Mothersille Stockport County Aktiv 126 / 103 40% 1 19.05.2027 Mehr Infos nötig
Jayden Wareham Barnet Aktiv 106 / 104 40% 5 18.05.2027 -
Josh Koroma Leyton Orient Aktiv 102 / 117 40% 1 16.05.2027 -
Sam Nombe Milton Keynes Dons Aktiv 109 / 122 40% 2 15.05.2027 -
Niall Ennis Blackpool Aktiv 124 / 119 40% 1 15.05.2027 -
Matteo Rover Reggiana Aktiv 110 / 127 40% 1 14.05.2027 -
Lamine Guèye Barrow AFC Aktiv 116 / 119 40% 2 13.05.2027 -
Mattia Iori Lumezzane Aktiv 109 / 97 40% 1 13.05.2027 -
Ronan Hale Gillingham Aktiv 125 / 100 40% 3 12.05.2027 -
Edarlyn Reyes Arsenal Tula Aktiv 99 / 113 40% 3 12.05.2027 -
Kwame Opoku Asante Kotoko Aktiv 90 / 85 40% 3 12.05.2027 -
Mees Rijks Bristol Rovers Aktiv 112 / 118 40% 3 11.05.2027 -
Fortune Bassey Djoliba Aktiv 111 / 112 40% 4 09.05.2027 -
Harry Leonard Peterborough United Aktiv 113 / 126 40% 6 09.05.2027 -
Marcus Browne AFC Wimbledon Aktiv 100 / 109 40% 2 07.05.2027 -
Christian Saydee Wigan Athletic Aktiv 111 / 124 40% 1 07.05.2027 -
Aaron Collins Milton Keynes Dons Aktiv 126 / 103 40% 1 05.05.2027 -
Everton Bala Levski Aktiv 127 / 136 40% 4 04.05.2027 Beobachten
Francesco Petito Dolomiti Bellunesi Aktiv 94 / 91 40% 1 04.05.2027 -
Martin Sekulić Ural Aktiv 113 / 97 40% 4 03.05.2027 -
Marco Tumminello Benevento Aktiv 109 / 111 40% 3 29.04.2027 -
Will Evans Mansfield Town Aktiv 94 / 85 40% 2 29.04.2027 -
Michele Emmausso Cosenza Aktiv 113 / 115 40% 1 24.04.2027 -
Jaze Kabia Grimsby Town Aktiv 86 / 102 40% 1 24.04.2027 -
Danyil Alefirenko Chornomorets Aktiv 106 / 108 40% 3 23.04.2027 -
Oleksii Hutsuliak Polissia Aktiv 121 / 111 40% 1 21.04.2027 -
Chinedu Geoffrey Krylya Sovetov Aktiv 125 / 118 40% 4 20.04.2027 -
Friday Ubong Ashanti Gold Aktiv 113 / 87 40% 3 20.04.2027 -
Matthew Dennis Notts County Aktiv 94 / 99 40% 2 20.04.2027 -
Vyacheslav Grulev Nizhniy Novgorod Aktiv 108 / 103 40% 3 18.04.2027 -
Fabrizio Cavegn Bristol Rovers Aktiv 113 / 111 40% 1 18.04.2027 -
Luca Fabrizi Pianese Aktiv 100 / 93 40% 1 14.04.2027 -
Pedro Marques Apollon Aktiv 115 / 95 40% 1 14.04.2027 -
Giacomo Zecca Torres Aktiv 97 / 102 40% 3 13.04.2027 -
Andrea Mattioli Arzignano Aktiv 105 / 89 40% 1 13.04.2027 -
José Martínes CSKA 1948 Aktiv 106 / 105 40% 2 12.04.2027 -
Lorenzo Di Stefano Torres Aktiv 119 / 117 40% 2 10.04.2027 -
Shayne Lavery Cambridge United Aktiv 107 / 115 40% 1 10.04.2027 -
Don Bolsius Ascoli Aktiv 118 / 113 40% 1 08.04.2027 -
Tenton Yenne Baltika Aktiv 100 / 105 40% 1 02.04.2027 -
Isaac Essien WAFA Aktiv 109 / 88 40% 5 30.03.2027 -
Dara Costelloe Wigan Athletic Aktiv 88 / 94 40% 1 30.03.2027 -
Marco Da Graca Novara Aktiv 105 / 119 40% 1 30.03.2027 -
Promise Omochere Bristol Rovers Aktiv 86 / 92 40% 2 24.03.2027 -
Dmitry Tsypchenko Torpedo Moscow Aktiv 112 / 101 40% 2 19.03.2027 -
Gladson Paintsil Wa All Stars Aktiv 84 / 106 40% 5 18.03.2027 -
Berna CSKA 1948 Aktiv 111 / 124 40% 2 17.03.2027 -
Kamran Aliev SKA Khabarovsk Aktiv 97 / 101 40% 1 17.03.2027 -
Calum Kavanagh Oldham Athletic Aktiv 89 / 105 40% 1 15.03.2027 -
Emanuele Schimmenti Potenza Aktiv 122 / 123 40% 1 10.03.2027 -
Ihor Krasnopir Polissia Aktiv 127 / 118 40% 2 05.03.2027 -
Mikhail Ignatov Sochi Aktiv 101 / 116 40% 1 03.03.2027 -
Lorent Tolaj Plymouth Argyle Aktiv 117 / 111 40% 1 19.02.2027 -
Tedi Cara LNZ Aktiv 110 / 123 40% 2 18.02.2027 -
Papa Ndiaga Yade Oleksandriya Aktiv 104 / 120 40% 1 16.02.2027 -
Andrés Dieppa Metalurh Zaporizhzhia Aktiv 84 / 104 40% 1 07.02.2027 -
Jonathan Gyan Liberty Professionals Aktiv 84 / 81 40% 1 07.02.2027 -
Leo Castledine Middlesbrough Aktiv 123 / 118 40% 1 06.02.2027 -
Yurii Klymchuk Kolos Aktiv 108 / 102 40% 1 04.02.2027 -
Joel Fameyeh Puskas Akademia Aktiv 117 / 123 40% 1 06.01.2027 -
Milán Tóth Vasas Aktiv 100 / 110 40% 1 28.12.2026 -
Eren Aydın Zira Aktiv 93 / 103 40% 2 01.12.2026 -
Nicolás Contín MFK Ruzomberok Aktiv 112 / 124 40% 5 27.11.2026 -
Job Ochieng Real Sociedad Aktiv 103 / 106 40% 3 27.11.2026 -
Dániel Lukács Puskas Akademia Aktiv 125 / 94 40% 1 25.11.2026 -
Peter Christiansen Viking Aktiv 122 / 123 40% 2 19.11.2026 -
Krisztofer Horváth Ujpest Aktiv 104 / 118 40% 1 19.11.2026 -
Jonás Luna Santa Clara Aktiv 125 / 110 40% 5 15.11.2026 -
Elias Hoff Melkersen Stromsgodset Aktiv 100 / 118 40% 1 14.11.2026 -
Sergio Riffo NK Zavrc Aktiv 84 / 93 40% 1 11.11.2026 -
Agustín Fernández NK Zavrc Aktiv 101 / 98 40% 1 09.11.2026 -
Ruben van Bommel Ferencvaros Aktiv 145 / 119 40% 1 09.11.2026 -
Gaspar Duarte Rosario Central Aktiv 124 / 109 40% 1 05.11.2026 -
Alejandro Viniegra Fehervar Aktiv 91 / 91 40% 1 04.11.2026 -
Nikolay Obolskiy Córdoba Aktiv 106 / 107 40% 2 02.11.2026 -
Hansel Zapata Botev Plovdiv Aktiv 109 / 102 40% 3 31.10.2026 -
Daniel Karlsbakk Sarpsborg 08 Aktiv 120 / 141 40% 1 28.10.2026 -
Kristian Eriksen Molde Aktiv 139 / 138 40% 1 24.10.2026 -
Marcelo Torres Gimnasia La Plata Aktiv 128 / 115 40% 4 18.10.2026 -
Tomás Orqueida Mattersburg Aktiv 112 / 93 40% 1 18.10.2026 -
Axel Pérez NK Domzale Aktiv 90 / 95 40% 1 18.10.2026 -
José Rivas Gamboa Trujillanos Aktiv 104 / 99 40% 1 16.10.2026 -
José Balza Deportivo Tachira Aktiv 110 / 100 40% 3 15.10.2026 -
Tomás Romero Unión de Santa Fe Aktiv 98 / 112 40% 2 15.10.2026 -
Ronaldo Peña Deportivo Lara Aktiv 102 / 113 40% 2 14.10.2026 -
Andreas Gruber DAC Dunajska Streda Aktiv 105 / 125 40% 1 13.10.2026 -
Denzel Jubitana Neftchi Aktiv 109 / 129 40% 2 11.10.2026 -
Elías Ovelar Dinamo Brest Aktiv 96 / 87 40% 1 08.10.2026 -
Gabriel Jesus Barcelona Aktiv 156 / 145 40% 3 07.10.2026 -
Junior Paredes Trujillanos Aktiv 110 / 103 40% 1 05.10.2026 -
Andreas Helmersen Bodo/Glimt Aktiv 133 / 127 40% 2 29.09.2026 -
Leandro Romano Ismaily Aktiv 85 / 100 40% 1 28.09.2026 -
Jeriel De Santis Caracas Aktiv 107 / 112 40% 2 26.09.2026 -
Fabricio Oviedo Rosario Central Aktiv 111 / 113 40% 1 26.09.2026 -
Domingo Ortíz Arda Aktiv 97 / 79 40% 1 23.09.2026 -
Genaro Rossi San Martín SJ Aktiv 116 / 117 40% 1 22.09.2026 -
Ramiro Ruiz Rodríguez Atlético Tucumán Aktiv 112 / 115 40% 1 18.09.2026 -
Joseph Atule Barau Aktiv 104 / 81 40% 1 15.09.2026 -
Mauricio Márquez Caracas Aktiv 94 / 107 40% 2 14.09.2026 -
Carlos Guerreño Slavia Sofia Aktiv 105 / 96 40% 2 13.09.2026 -
Luka Kurtovic NK Domzale Aktiv 115 / 136 40% 1 13.09.2026 -
Thomas Oliveri Defensa y Justicia Aktiv 89 / 90 40% 1 12.09.2026 -
Martín Arenas Spartak 1918 Aktiv 96 / 81 40% 1 10.09.2026 -
Alan Cisnero Shukura Aktiv 89 / 108 40% 1 10.09.2026 -
Ronny Maza Aragua Aktiv 100 / 106 40% 1 08.09.2026 -
Jesús Amarilla Naftan Aktiv 89 / 94 40% 1 06.09.2026 -
Santiago de Ossa Botev Plovdiv Aktiv 92 / 105 40% 1 02.09.2026 -
Kwadwo Duah Ludogorets Aktiv 123 / 132 40% 1 25.08.2026 -
Alejandro Aquino Valerenga Aktiv 82 / 104 40% 1 24.08.2026 -
Andrés Molinas Alashkert Aktiv 104 / 107 40% 1 22.08.2026 -
Deyman Cortés Botev Plovdiv Aktiv 78 / 100 40% 1 21.08.2026 -
Ignacio Giacinti Patronato Aktiv 88 / 86 40% 1 18.08.2026 -
Gonzalo Tapia Palestino Aktiv 95 / 98 40% 1 15.08.2026 -
Edixon Mena Ventspils Aktiv 94 / 84 40% 1 14.08.2026 -
Ignacio Sabatini Gimnasia y Esgrima Aktiv 102 / 113 40% 1 14.08.2026 -
Lucas Bruera Carabobo Aktiv 122 / 123 40% 1 10.08.2026 -
Jorge Graterol Deportivo Lara Aktiv 89 / 87 40% 1 09.08.2026 -
Héctor Espínola Caracas Aktiv 109 / 112 40% 1 08.08.2026 -
Mauro Smarra Deportivo Riestra Aktiv 94 / 102 40% 1 05.08.2026 -
Christian Larotonda Caracas Aktiv 117 / 104 40% 1 05.08.2026 -
Javi Moreno Albacete Aktiv 104 / 110 40% 1 05.08.2026 -
Lucas Souto Defensa y Justicia Aktiv 126 / 130 40% 1 03.08.2026 -
Pedro Silva Torrejón Gimnasia La Plata Aktiv 111 / 109 40% 1 03.08.2026 -
Jáder Quiñónes Once Caldas Aktiv 114 / 114 40% 1 02.08.2026 -
Alexander González Boston River Aktiv 106 / 111 40% 1 01.08.2026 -
Munir Albacete Aktiv 110 / 133 40% 1 01.08.2026 -